Time;durP1;ratioP1;P1;durP2;ratioP2;P2;SDS_P1;SDS_P2;PMS_P1;PMS_P2;Temp;Humidity;BMP_temperature;BMP_pressure;BME280_temperature;BME280_humidity;BME280_pressure;Samples;Min_cycle;Max_cycle;Signal;HPM_P1;HPM_P2
2022/09/13 00:00:50;;;;;;;2.63;2.20;;;18.00;99.90;;;;;;5024245;28;20944;-80
2022/09/13 00:03:19;;;;;;;2.17;2.03;;;18.00;99.90;;;;;;5020121;28;21133;-80
2022/09/13 00:05:48;;;;;;;2.17;1.97;;;17.80;99.90;;;;;;5020979;28;20456;-81
2022/09/13 00:08:17;;;;;;;2.13;2.03;;;17.80;99.90;;;;;;5021377;28;20456;-81
2022/09/13 00:10:47;;;;;;;2.70;2.50;;;17.80;1.00;;;;;;5027678;28;20476;-81
2022/09/13 00:13:17;;;;;;;2.10;2.00;;;17.60;1.00;;;;;;5021687;28;20479;-81
2022/09/13 00:15:48;;;;;;;2.13;1.93;;;17.50;1.00;;;;;;5024716;28;20450;-81
2022/09/13 00:18:17;;;;;;;3.57;2.30;;;17.50;1.00;;;;;;5024542;28;20920;-81
2022/09/13 00:20:46;;;;;;;2.40;2.30;;;17.40;1.00;;;;;;5024534;28;20466;-81
2022/09/13 00:23:15;;;;;;;2.10;2.00;;;17.40;1.00;;;;;;5018133;28;21312;-81
2022/09/13 00:25:43;;;;;;;2.20;2.10;;;17.40;1.00;;;;;;5021691;28;20491;-81
2022/09/13 00:28:11;;;;;;;2.20;2.10;;;17.20;1.00;;;;;;5025009;28;20456;-81
2022/09/13 00:30:40;;;;;;;2.70;2.50;;;17.20;1.00;;;;;;5022614;28;20543;-81
2022/09/13 00:33:08;;;;;;;2.20;2.00;;;17.20;1.00;;;;;;5026065;28;20590;-82
2022/09/13 00:35:37;;;;;;;2.60;2.50;;;17.20;1.00;;;;;;5025827;28;20460;-82
2022/09/13 00:38:05;;;;;;;2.30;2.20;;;17.20;1.00;;;;;;5027451;28;20507;-81
2022/09/13 00:40:37;;;;;;;3.13;2.60;;;17.20;1.00;;;;;;5021464;28;20464;-82
2022/09/13 00:43:12;;;;;;;2.70;2.50;;;17.10;1.00;;;;;;5025783;28;20923;-81
2022/09/13 00:45:42;;;;;;;2.40;2.30;;;17.00;30.50;;;;;;5025808;28;20466;-82
2022/09/13 00:48:18;;;;;;;2.63;2.23;;;16.90;95.60;;;;;;5032506;28;20543;-83
2022/09/13 00:50:51;;;;;;;2.30;2.20;;;17.00;99.90;;;;;;5026752;28;20456;-82
2022/09/13 00:53:24;;;;;;;3.07;2.87;;;17.00;99.90;;;;;;5021753;28;20489;-82
2022/09/13 00:55:56;;;;;;;2.57;2.30;;;16.90;91.30;;;;;;5024661;28;20499;-81
2022/09/13 00:58:30;;;;;;;2.00;1.90;;;16.90;99.90;;;;;;5031242;28;20470;-82
2022/09/13 01:01:02;;;;;;;2.70;2.50;;;17.00;99.90;;;;;;5027144;28;20467;-81
2022/09/13 01:03:33;;;;;;;3.10;2.90;;;17.00;99.90;;;;;;5030792;28;20838;-81
2022/09/13 01:06:07;;;;;;;2.90;2.70;;;17.00;81.50;;;;;;5027170;28;20920;-81
2022/09/13 01:08:36;;;;;;;2.50;2.40;;;16.90;99.90;;;;;;5027200;28;20554;-81
2022/09/13 01:11:10;;;;;;;3.60;2.70;;;17.10;99.90;;;;;;5026929;28;20517;-82
2022/09/13 01:13:39;;;;;;;2.60;2.50;;;17.00;99.90;;;;;;5029130;28;21013;-81
2022/09/13 01:16:09;;;;;;;3.43;3.13;;;17.00;99.90;;;;;;5026545;28;20456;-81
2022/09/13 01:18:37;;;;;;;2.83;2.73;;;17.10;99.90;;;;;;5026983;28;20958;-81
2022/09/13 01:21:39;;;;;;;2.77;2.67;;;17.00;97.30;;;;;;5029148;28;20521;-81
2022/09/13 01:24:39;;;;;;;2.53;2.43;;;16.90;99.90;;;;;;5027749;28;20566;-81
2022/09/13 01:27:26;;;;;;;2.60;2.50;;;16.90;99.90;;;;;;5025108;28;20469;-81
2022/09/13 01:30:11;;;;;;;2.80;2.60;;;17.00;99.90;;;;;;5029839;28;20946;-80
2022/09/13 01:33:08;;;;;;;2.90;2.80;;;17.30;99.90;;;;;;5025284;28;20945;-81
2022/09/13 01:35:52;;;;;;;3.20;3.00;;;17.50;37.60;;;;;;5027435;28;20444;-80
2022/09/13 01:38:35;;;;;;;3.47;3.27;;;17.60;1.00;;;;;;5024929;28;20452;-82
2022/09/13 01:41:15;;;;;;;3.77;3.57;;;17.70;1.00;;;;;;5027217;28;20456;-81
2022/09/13 01:43:54;;;;;;;3.73;3.53;;;17.50;1.00;;;;;;5024274;28;20473;-82
2022/09/13 01:46:28;;;;;;;3.40;3.30;;;17.60;1.00;;;;;;5029326;28;20449;-81
2022/09/13 01:49:02;;;;;;;3.10;3.00;;;17.60;1.00;;;;;;5028635;28;21004;-82
2022/09/13 01:51:34;;;;;;;3.10;2.90;;;17.70;1.00;;;;;;5029874;28;20439;-82
2022/09/13 01:54:13;;;;;;;2.83;2.73;;;17.60;1.00;;;;;;5030983;28;21176;-82
2022/09/13 01:56:49;;;;;;;4.00;3.67;;;17.40;1.00;;;;;;5026026;28;20453;-82
2022/09/13 01:59:22;;;;;;;3.57;3.37;;;17.30;39.50;;;;;;5027223;28;20448;-82
2022/09/13 02:01:56;;;;;;;2.77;2.67;;;17.20;93.00;;;;;;5040393;28;20477;-81
2022/09/13 02:04:29;;;;;;;3.30;3.20;;;17.10;99.90;;;;;;5056671;28;20480;-81
2022/09/13 02:07:02;;;;;;;3.37;3.27;;;17.00;99.90;;;;;;5039572;28;20472;-81
2022/09/13 02:09:36;;;;;;;3.50;3.40;;;16.90;99.90;;;;;;5033166;28;20464;-80
2022/09/13 02:12:10;;;;;;;3.90;3.70;;;16.90;99.90;;;;;;5031513;28;20510;-81
2022/09/13 02:14:41;;;;;;;3.00;2.90;;;16.90;99.90;;;;;;5040431;28;20807;-81
2022/09/13 02:17:14;;;;;;;3.70;3.50;;;16.90;99.90;;;;;;5032743;28;20452;-81
2022/09/13 02:19:50;;;;;;;3.20;3.10;;;16.70;99.90;;;;;;5033447;28;20445;-81
2022/09/13 02:22:23;;;;;;;2.97;2.83;;;16.70;99.90;;;;;;5032719;28;20833;-81
2022/09/13 02:24:55;;;;;;;3.40;3.20;;;16.60;99.90;;;;;;5036006;28;20464;-81
2022/09/13 02:27:26;;;;;;;3.50;3.30;;;16.50;99.90;;;;;;5035009;28;20468;-80
2022/09/13 02:29:58;;;;;;;3.50;3.40;;;16.40;1.00;;;;;;5036200;28;20498;-81
2022/09/13 02:32:33;;;;;;;3.47;3.17;;;16.30;1.00;;;;;;5033170;28;20488;-81
2022/09/13 02:35:05;;;;;;;3.00;2.90;;;16.20;99.90;;;;;;5029892;28;20466;-81
2022/09/13 02:37:38;;;;;;;3.83;3.63;;;16.20;99.90;;;;;;5031394;28;20451;-80
2022/09/13 02:40:11;;;;;;;3.43;3.33;;;16.20;38.20;;;;;;5028867;28;20494;-81
2022/09/13 02:42:43;;;;;;;3.00;2.90;;;16.20;57.40;;;;;;5034001;28;20492;-81
2022/09/13 02:45:14;;;;;;;3.07;2.90;;;16.20;99.90;;;;;;5031920;28;20451;-81
2022/09/13 02:47:52;;;;;;;3.90;3.63;;;16.20;99.90;;;;;;5025189;28;20533;-81
2022/09/13 02:50:33;;;;;;;3.13;2.93;;;16.20;99.90;;;;;;5027606;28;21147;-82
2022/09/13 02:53:11;;;;;;;2.57;2.47;;;16.30;85.50;;;;;;5028669;28;20483;-81
2022/09/13 02:55:44;;;;;;;3.70;3.50;;;16.20;99.90;;;;;;5029779;28;20478;-81
2022/09/13 02:58:19;;;;;;;3.33;3.13;;;16.20;99.90;;;;;;5029089;28;20533;-81
2022/09/13 03:00:54;;;;;;;3.10;3.00;;;16.20;1.00;;;;;;5040099;28;20502;-82
2022/09/13 03:03:24;;;;;;;3.00;2.80;;;16.10;25.20;;;;;;5026971;28;20876;-80
2022/09/13 03:05:53;;;;;;;3.70;3.50;;;16.10;99.90;;;;;;5028202;28;20455;-80
2022/09/13 03:08:23;;;;;;;3.03;2.83;;;16.00;99.90;;;;;;5027580;28;20457;-81
2022/09/13 03:11:00;;;;;;;3.97;3.63;;;16.00;99.90;;;;;;5028661;28;20450;-81
2022/09/13 03:13:39;;;;;;;2.90;2.80;;;15.90;99.90;;;;;;5027795;28;20540;-81
2022/09/13 03:16:23;;;;;;;3.47;3.17;;;16.00;99.90;;;;;;5029209;28;20476;-81
2022/09/13 03:19:09;;;;;;;3.37;3.27;;;15.90;99.90;;;;;;5026669;28;20517;-81
2022/09/13 03:21:54;;;;;;;3.13;3.03;;;15.90;99.90;;;;;;5026538;28;20454;-80
2022/09/13 03:24:26;;;;;;;3.30;3.20;;;15.90;1.00;;;;;;5028471;28;20455;-80
2022/09/13 03:27:09;;;;;;;3.10;3.00;;;15.90;99.90;;;;;;5027074;28;20487;-82
2022/09/13 03:29:44;;;;;;;2.97;2.87;;;15.80;99.90;;;;;;5027159;28;20456;-81
2022/09/13 03:32:24;;;;;;;3.30;3.10;;;15.80;99.90;;;;;;5028256;28;20476;-81
2022/09/13 03:35:02;;;;;;;3.47;3.27;;;15.80;1.00;;;;;;5025052;28;20887;-81
2022/09/13 03:37:36;;;;;;;3.07;2.87;;;15.80;99.90;;;;;;5024318;28;20465;-81
2022/09/13 03:40:09;;;;;;;7.13;3.30;;;15.70;1.00;;;;;;5025965;28;20987;-81
2022/09/13 03:42:43;;;;;;;3.50;3.10;;;15.60;1.00;;;;;;5028108;28;21080;-82
2022/09/13 03:45:14;;;;;;;3.23;3.03;;;15.70;1.00;;;;;;5026553;28;20547;-83
2022/09/13 03:47:45;;;;;;;3.17;3.07;;;15.90;1.00;;;;;;5025545;28;20522;-82
2022/09/13 03:50:19;;;;;;;3.40;3.20;;;16.00;99.90;;;;;;5028137;28;20502;-81
2022/09/13 03:52:51;;;;;;;2.83;2.73;;;15.90;99.90;;;;;;5027836;28;20492;-80
2022/09/13 03:55:21;;;;;;;2.93;2.83;;;15.80;1.00;;;;;;5029728;28;20467;-82
2022/09/13 03:57:49;;;;;;;3.17;2.97;;;15.70;1.00;;;;;;5026930;28;20536;-84
2022/09/13 04:00:18;;;;;;;2.83;2.73;;;15.70;29.80;;;;;;5023315;28;20463;-84
2022/09/13 04:02:46;;;;;;;3.70;3.50;;;15.70;1.00;;;;;;5027202;28;20831;-83
2022/09/13 04:05:15;;;;;;;3.63;3.30;;;15.60;51.80;;;;;;5026254;28;20530;-83
2022/09/13 04:07:44;;;;;;;3.10;3.00;;;15.60;40.70;;;;;;5029689;28;20464;-83
2022/09/13 04:10:12;;;;;;;3.67;3.33;;;15.60;1.00;;;;;;5026326;28;21171;-83
2022/09/13 04:12:41;;;;;;;3.80;3.50;;;15.60;1.00;;;;;;5028904;28;20476;-83
2022/09/13 04:15:10;;;;;;;3.50;3.40;;;15.50;1.00;;;;;;5027454;28;20481;-82
2022/09/13 04:17:38;;;;;;;3.93;3.60;;;15.50;99.90;;;;;;5038590;28;20503;-83
2022/09/13 04:20:07;;;;;;;3.37;3.27;;;15.60;1.00;;;;;;5022333;28;22034;-82
2022/09/13 04:22:36;;;;;;;3.60;3.30;;;15.40;1.00;;;;;;5026325;28;20484;-80
2022/09/13 04:25:06;;;;;;;3.87;3.57;;;15.30;99.90;;;;;;5024302;28;20564;-80
2022/09/13 04:27:35;;;;;;;3.80;3.60;;;15.20;99.90;;;;;;5027229;28;20530;-81
2022/09/13 04:30:04;;;;;;;4.27;3.40;;;15.30;99.90;;;;;;5026632;28;20454;-81
2022/09/13 04:32:32;;;;;;;3.83;3.57;;;15.50;90.00;;;;;;5027360;28;20491;-82
2022/09/13 04:35:00;;;;;;;3.50;3.33;;;15.30;27.10;;;;;;5025498;28;20993;-82
2022/09/13 04:37:28;;;;;;;3.80;3.60;;;15.20;99.90;;;;;;5027299;28;20445;-82
2022/09/13 04:39:58;;;;;;;3.90;3.60;;;15.20;1.00;;;;;;5023769;28;21077;-82
2022/09/13 04:42:26;;;;;;;5.23;4.30;;;15.30;1.00;;;;;;5024379;28;20485;-83
2022/09/13 04:44:55;;;;;;;4.07;3.77;;;15.40;1.00;;;;;;5026928;28;20740;-81
2022/09/13 04:47:23;;;;;;;4.20;3.90;;;15.50;99.90;;;;;;5042446;28;20457;-83
2022/09/13 04:49:51;;;;;;;3.90;3.77;;;15.50;99.90;;;;;;5027908;28;20537;-74
2022/09/13 04:52:19;;;;;;;4.07;3.87;;;15.80;99.90;;;;;;5022649;28;20563;-70
2022/09/13 04:54:48;;;;;;;3.80;3.50;;;16.20;99.90;;;;;;5037402;28;20793;-71
2022/09/13 04:57:17;;;;;;;4.10;3.80;;;16.30;99.90;;;;;;5026883;28;20459;-70
2022/09/13 04:59:45;;;;;;;5.37;3.83;;;16.30;99.90;;;;;;5023885;28;20536;-70
2022/09/13 05:02:13;;;;;;;4.23;4.03;;;16.30;94.60;;;;;;5024219;28;20484;-71
2022/09/13 05:04:42;;;;;;;4.60;4.17;;;16.40;76.20;;;;;;5024124;28;20447;-71
2022/09/13 05:07:10;;;;;;;4.10;3.90;;;16.30;99.90;;;;;;5029623;28;20825;-70
2022/09/13 05:09:38;;;;;;;4.27;4.03;;;16.40;26.90;;;;;;5024802;28;20462;-71
2022/09/13 05:12:07;;;;;;;4.47;4.17;;;16.30;1.00;;;;;;5028877;28;20890;-70
2022/09/13 05:14:36;;;;;;;4.40;4.10;;;16.30;4.30;;;;;;5028349;28;20487;-78
2022/09/13 05:17:04;;;;;;;4.57;4.37;;;16.20;1.00;;;;;;5029452;28;20484;-78
2022/09/13 05:19:33;;;;;;;4.40;4.10;;;15.80;1.00;;;;;;5025082;28;20993;-78
2022/09/13 05:22:02;;;;;;;5.00;4.77;;;15.60;99.90;;;;;;5022427;28;20464;-79
2022/09/13 05:24:30;;;;;;;4.20;4.00;;;15.60;99.90;;;;;;5024869;28;20815;-78
2022/09/13 05:26:58;;;;;;;4.20;4.00;;;15.50;99.90;;;;;;5023146;28;20988;-78
2022/09/13 05:29:26;;;;;;;4.63;4.40;;;15.50;99.90;;;;;;5024732;28;20452;-77
2022/09/13 05:31:56;;;;;;;4.10;3.90;;;15.40;1.00;;;;;;5028218;28;20528;-78
2022/09/13 05:34:24;;;;;;;4.93;4.60;;;15.30;99.90;;;;;;5023513;28;20478;-78
2022/09/13 05:36:52;;;;;;;4.70;4.40;;;15.40;99.90;;;;;;5024384;28;20961;-77
2022/09/13 05:39:22;;;;;;;4.50;4.30;;;15.50;1.00;;;;;;5029038;28;20520;-77
2022/09/13 05:42:10;;;;;;;4.60;4.40;;;15.40;93.50;;;;;;5025805;28;20493;-77
2022/09/13 05:44:38;;;;;;;5.17;4.77;;;15.40;89.50;;;;;;5029788;28;20485;-78
2022/09/13 05:47:07;;;;;;;4.80;4.50;;;15.40;99.90;;;;;;5029120;28;20481;-78
2022/09/13 05:49:35;;;;;;;4.63;4.40;;;15.60;1.00;;;;;;5029827;28;20480;-78
2022/09/13 05:52:23;;;;;;;5.70;5.17;;;15.60;1.00;;;;;;5029165;28;20477;-78
2022/09/13 05:54:51;;;;;;;5.87;5.13;;;15.60;1.00;;;;;;5023723;28;20518;-78
2022/09/13 05:57:19;;;;;;;5.40;5.00;;;15.60;1.00;;;;;;5023790;28;20453;-78
2022/09/13 05:59:47;;;;;;;5.27;5.00;;;15.60;1.00;;;;;;5043695;28;20535;-77
2022/09/13 06:02:17;;;;;;;6.37;5.60;;;15.60;1.00;;;;;;5023819;28;20514;-78
2022/09/13 06:04:45;;;;;;;5.63;5.33;;;15.70;99.90;;;;;;5028811;28;20814;-78
2022/09/13 06:07:13;;;;;;;5.60;5.37;;;15.80;99.90;;;;;;5031324;28;22737;-78
2022/09/13 06:09:41;;;;;;;5.63;5.43;;;15.90;99.90;;;;;;5032668;28;20497;-78
2022/09/13 06:12:09;;;;;;;6.27;5.87;;;16.00;99.90;;;;;;5029037;28;20532;-78
2022/09/13 06:14:37;;;;;;;6.07;5.77;;;16.00;1.00;;;;;;5028881;28;20483;-77
2022/09/13 06:17:05;;;;;;;6.00;5.60;;;16.10;1.00;;;;;;5029380;28;20561;-77
2022/09/13 06:19:34;;;;;;;5.73;5.43;;;16.20;1.00;;;;;;5028929;28;20550;-78
2022/09/13 06:22:03;;;;;;;5.67;5.40;;;16.40;1.00;;;;;;5024596;28;20538;-77
2022/09/13 06:24:31;;;;;;;7.97;7.37;;;16.50;1.00;;;;;;5028917;28;20501;-78
2022/09/13 06:26:59;;;;;;;9.37;8.43;;;16.40;1.00;;;;;;5028660;28;20446;-77
2022/09/13 06:29:27;;;;;;;9.30;8.53;;;16.40;1.00;;;;;;5028487;28;20483;-79
2022/09/13 06:31:55;;;;;;;8.37;7.87;;;16.30;99.90;;;;;;5028662;28;21367;-78
2022/09/13 06:34:23;;;;;;;8.40;7.70;;;16.20;99.90;;;;;;5028179;28;20558;-78
2022/09/13 06:36:59;;;;;;;9.20;8.37;;;16.20;1.00;;;;;;5028269;28;20454;-78
2022/09/13 06:39:27;;;;;;;7.23;6.63;;;16.10;99.90;;;;;;5030089;28;20548;-78
2022/09/13 06:41:55;;;;;;;7.60;7.10;;;16.10;99.90;;;;;;5025116;28;21116;-78
2022/09/13 06:44:24;;;;;;;8.53;7.87;;;16.20;99.90;;;;;;5025087;28;20453;-78
2022/09/13 06:46:52;;;;;;;7.10;6.70;;;16.20;99.90;;;;;;5025332;28;20459;-78
2022/09/13 06:49:20;;;;;;;9.47;6.30;;;16.30;1.00;;;;;;5022933;28;20463;-79
2022/09/13 06:51:48;;;;;;;7.40;7.00;;;16.40;1.00;;;;;;5026109;28;20553;-79
2022/09/13 06:54:17;;;;;;;6.90;6.40;;;16.60;1.00;;;;;;5030144;28;20478;-78
2022/09/13 06:56:45;;;;;;;6.23;5.73;;;16.70;99.90;;;;;;5023688;28;20479;-79
2022/09/13 06:59:13;;;;;;;6.77;6.27;;;16.80;1.00;;;;;;5028212;28;20537;-79
2022/09/13 07:01:43;;;;;;;6.10;5.60;;;16.90;1.00;;;;;;5027998;28;20797;-79
2022/09/13 07:04:14;;;;;;;5.23;4.90;;;16.90;99.90;;;;;;5028173;28;20454;-78
2022/09/13 07:06:44;;;;;;;6.30;5.80;;;17.20;99.90;;;;;;5028505;28;20546;-77
2022/09/13 07:09:13;;;;;;;5.80;5.57;;;17.30;99.90;;;;;;5028671;28;20521;-78
2022/09/13 07:11:43;;;;;;;5.80;5.40;;;17.40;99.90;;;;;;5027076;28;20502;-78
2022/09/13 07:14:14;;;;;;;5.80;5.50;;;17.40;99.90;;;;;;5030377;28;20542;-78
2022/09/13 07:16:42;;;;;;;6.17;5.67;;;17.40;99.90;;;;;;5039385;28;20490;-79
2022/09/13 07:19:14;;;;;;;5.40;5.20;;;17.50;99.90;;;;;;5018201;28;20545;-78
2022/09/13 07:21:42;;;;;;;5.63;5.23;;;17.70;99.90;;;;;;5027530;28;20536;-78
2022/09/13 07:24:11;;;;;;;6.20;5.80;;;17.80;1.00;;;;;;5035299;28;21258;-78
2022/09/13 07:26:39;;;;;;;8.47;5.60;;;17.90;1.00;;;;;;5027789;28;20491;-80
2022/09/13 07:29:11;;;;;;;5.50;5.10;;;18.10;10.20;;;;;;5023534;28;20489;-78
2022/09/13 07:31:42;;;;;;;7.20;5.20;;;18.20;1.00;;;;;;5027305;28;20461;-78
2022/09/13 07:34:14;;;;;;;5.80;5.30;;;18.30;1.00;;;;;;5024350;28;20452;-79
2022/09/13 07:36:43;;;;;;;5.37;5.17;;;18.40;1.00;;;;;;5024819;28;20488;-78
2022/09/13 07:39:11;;;;;;;5.03;4.80;;;18.50;1.00;;;;;;5021441;28;20552;-78
2022/09/13 07:41:45;;;;;;;5.50;5.10;;;18.60;1.00;;;;;;5026586;28;21378;-79
2022/09/13 07:44:15;;;;;;;4.90;4.70;;;18.80;1.00;;;;;;5027721;28;20878;-78
2022/09/13 07:46:43;;;;;;;5.00;4.80;;;18.90;1.00;;;;;;5024973;28;20530;-80
2022/09/13 07:49:13;;;;;;;6.03;4.40;;;19.00;1.00;;;;;;5019274;28;20487;-78
2022/09/13 07:51:43;;;;;;;6.27;4.97;;;19.20;1.00;;;;;;5016959;28;20452;-80
2022/09/13 07:54:13;;;;;;;4.40;4.30;;;19.30;1.00;;;;;;5025325;28;20465;-79
2022/09/13 07:56:42;;;;;;;4.77;4.57;;;19.40;1.00;;;;;;5028614;28;20578;-79
2022/09/13 07:59:13;;;;;;;4.80;4.60;;;19.50;99.90;;;;;;5028803;28;20995;-80
2022/09/13 08:01:45;;;;;;;4.93;4.83;;;19.60;1.00;;;;;;5028888;28;20479;-78
2022/09/13 08:04:16;;;;;;;5.07;4.90;;;19.90;99.90;;;;;;5036704;28;20449;-80
2022/09/13 08:06:47;;;;;;;5.63;5.13;;;20.00;99.90;;;;;;5017373;28;20484;-79
2022/09/13 08:09:15;;;;;;;5.20;5.03;;;20.20;99.90;;;;;;5028961;28;20457;-79
2022/09/13 08:11:46;;;;;;;5.50;5.30;;;20.30;99.90;;;;;;5019895;28;20577;-79
2022/09/13 08:14:16;;;;;;;5.37;5.17;;;20.40;99.90;;;;;;5027260;28;21272;-80
2022/09/13 08:16:46;;;;;;;5.10;4.90;;;20.50;99.90;;;;;;5027920;28;20508;-79
2022/09/13 08:19:17;;;;;;;4.83;4.63;;;20.50;99.90;;;;;;5032076;28;20571;-80
2022/09/13 08:21:46;;;;;;;4.60;4.50;;;20.60;99.90;;;;;;5021863;28;21174;-80
2022/09/13 08:24:15;;;;;;;4.60;4.50;;;20.80;99.90;;;;;;5027505;28;22026;-79
2022/09/13 08:26:44;;;;;;;4.90;4.80;;;20.90;99.90;;;;;;5026407;28;20479;-79
2022/09/13 08:29:13;;;;;;;4.90;4.60;;;21.00;99.90;;;;;;5027915;28;20518;-80
2022/09/13 08:31:41;;;;;;;4.60;4.40;;;21.00;99.90;;;;;;5028879;28;20544;-80
2022/09/13 08:34:13;;;;;;;4.20;4.00;;;21.20;99.90;;;;;;5019446;28;20464;-79
2022/09/13 08:36:41;;;;;;;4.17;4.07;;;21.20;99.90;;;;;;5021971;28;20508;-79
2022/09/13 08:39:12;;;;;;;4.30;4.20;;;21.40;99.90;;;;;;5021943;28;20970;-80
2022/09/13 08:42:10;;;;;;;3.90;3.80;;;21.50;99.90;;;;;;5025843;28;20507;-79
2022/09/13 08:44:45;;;;;;;4.40;4.00;;;21.60;99.90;;;;;;5026691;28;21232;-79
2022/09/13 08:47:34;;;;;;;4.13;3.93;;;22.00;99.90;;;;;;5025486;28;20544;-80
2022/09/13 08:50:14;;;;;;;4.20;3.90;;;22.00;99.90;;;;;;5019832;28;20483;-80
2022/09/13 08:52:52;;;;;;;3.77;3.57;;;22.00;99.90;;;;;;5025451;28;20473;-79
2022/09/13 08:55:28;;;;;;;6.23;3.47;;;22.00;99.90;;;;;;5025528;28;20568;-79
2022/09/13 08:58:04;;;;;;;3.40;3.30;;;22.10;99.90;;;;;;5027529;28;20470;-79
2022/09/13 09:00:38;;;;;;;3.40;3.27;;;22.20;99.90;;;;;;5028193;28;21026;-80
2022/09/13 09:03:18;;;;;;;2.97;2.87;;;22.40;99.90;;;;;;5021626;28;20882;-79
2022/09/13 09:05:49;;;;;;;3.40;3.30;;;22.50;99.90;;;;;;5020990;28;20455;-81
2022/09/13 09:08:27;;;;;;;2.97;2.87;;;22.50;99.90;;;;;;5024839;28;21051;-81
2022/09/13 09:10:58;;;;;;;2.80;2.70;;;22.50;99.90;;;;;;5027822;28;20469;-79
2022/09/13 09:13:29;;;;;;;3.10;3.00;;;22.80;99.90;;;;;;5026539;28;20467;-81
2022/09/13 09:16:01;;;;;;;3.13;3.00;;;22.90;99.90;;;;;;5020421;28;20463;-80
2022/09/13 09:18:33;;;;;;;3.13;2.90;;;23.00;99.90;;;;;;5030233;28;20493;-80
2022/09/13 09:21:03;;;;;;;2.40;2.27;;;23.10;99.90;;;;;;5030719;28;20455;-79
2022/09/13 09:23:38;;;;;;;2.33;2.23;;;23.10;99.90;;;;;;5032886;28;20529;-81
2022/09/13 09:26:16;;;;;;;2.50;2.40;;;23.10;99.90;;;;;;5032223;28;20549;-79
2022/09/13 09:28:47;;;;;;;1.87;1.80;;;23.30;99.90;;;;;;5032931;28;20573;-80
2022/09/13 09:31:26;;;;;;;1.93;1.83;;;23.10;99.90;;;;;;5033123;28;20534;-80
2022/09/13 09:34:08;;;;;;;2.20;2.00;;;23.00;99.90;;;;;;5032608;28;20446;-77
2022/09/13 09:36:45;;;;;;;2.63;2.53;;;23.10;99.90;;;;;;5024231;28;20587;-79
2022/09/13 09:39:15;;;;;;;2.40;2.30;;;23.20;99.90;;;;;;5032036;28;20992;-80
2022/09/13 09:41:44;;;;;;;1.80;1.80;;;23.30;99.90;;;;;;5027262;28;20459;-80
2022/09/13 09:44:20;;;;;;;2.00;2.00;;;23.40;99.90;;;;;;5031829;28;20554;-79
2022/09/13 09:46:52;;;;;;;2.60;2.50;;;23.40;99.90;;;;;;5028813;28;20575;-81
2022/09/13 09:52:16;;;;;;;2.50;2.40;;;23.40;99.90;;;;;;5031688;28;20578;-80
2022/09/13 09:54:45;;;;;;;2.20;2.10;;;23.50;99.90;;;;;;5031758;28;20482;-80
2022/09/13 09:57:13;;;;;;;4.30;1.90;;;23.70;99.90;;;;;;5031253;28;20546;-79
2022/09/13 09:59:41;;;;;;;2.27;2.17;;;23.80;99.90;;;;;;5030867;28;20480;-80
2022/09/13 10:02:17;;;;;;;2.30;2.20;;;24.00;99.90;;;;;;5031801;28;20542;-80
2022/09/13 10:04:55;;;;;;;2.63;2.50;;;24.10;99.90;;;;;;5031788;28;20459;-79
2022/09/13 10:07:31;;;;;;;2.33;2.23;;;24.30;99.90;;;;;;5030313;28;20506;-81
2022/09/13 10:10:03;;;;;;;2.70;2.60;;;24.20;99.90;;;;;;5031582;28;20518;-79
2022/09/13 10:12:34;;;;;;;1.70;1.70;;;24.50;99.90;;;;;;5031516;28;20579;-81
2022/09/13 10:15:25;;;;;;;1.93;1.87;;;24.50;99.90;;;;;;5032572;28;20503;-79
2022/09/13 10:18:15;;;;;;;1.83;1.83;;;25.10;99.90;;;;;;5028224;28;20495;-79
2022/09/13 10:21:05;;;;;;;1.90;1.80;;;25.20;99.90;;;;;;5021352;28;20456;-80
2022/09/13 10:23:36;;;;;;;1.80;1.70;;;25.10;99.90;;;;;;5033956;28;20480;-80
2022/09/13 10:26:09;;;;;;;1.80;1.70;;;25.20;99.90;;;;;;5034094;28;20539;-81
2022/09/13 10:28:44;;;;;;;1.67;1.57;;;25.30;99.90;;;;;;5027164;28;21197;-79
2022/09/13 10:31:14;;;;;;;2.07;1.97;;;25.50;99.90;;;;;;5027461;28;20460;-78
2022/09/13 10:33:52;;;;;;;2.23;2.03;;;25.40;99.90;;;;;;5026695;28;20547;-78
2022/09/13 10:36:24;;;;;;;2.67;2.57;;;25.20;99.90;;;;;;5024505;28;20508;-78
2022/09/13 10:39:18;;;;;;;2.27;2.17;;;25.20;99.90;;;;;;5022996;28;20460;-78
2022/09/13 10:41:51;;;;;;;1.60;1.60;;;25.50;99.90;;;;;;5020562;28;20488;-78
2022/09/13 10:44:28;;;;;;;2.00;1.90;;;25.10;99.90;;;;;;5026050;28;20453;-78
2022/09/13 10:46:59;;;;;;;2.33;2.23;;;24.90;99.90;;;;;;5028619;28;20459;-79
2022/09/13 10:49:39;;;;;;;2.13;2.00;;;24.80;99.90;;;;;;5024912;28;20510;-77
2022/09/13 10:52:31;;;;;;;1.67;1.57;;;24.70;99.90;;;;;;5028097;28;20480;-79
2022/09/13 10:55:27;;;;;;;1.70;1.60;;;24.90;99.90;;;;;;5019048;28;21229;-79
2022/09/13 10:58:13;;;;;;;1.80;1.70;;;25.00;99.90;;;;;;5027792;28;20574;-78
2022/09/13 11:01:01;;;;;;;2.00;1.90;;;24.90;99.90;;;;;;5024216;28;20456;-79
2022/09/13 11:03:48;;;;;;;1.80;1.70;;;24.90;99.90;;;;;;5008767;28;20857;-78
2022/09/13 11:06:23;;;;;;;2.27;2.10;;;24.80;99.90;;;;;;5017613;28;20521;-79
2022/09/13 11:09:01;;;;;;;1.90;1.80;;;24.90;99.90;;;;;;5026137;28;20506;-79
2022/09/13 11:11:36;;;;;;;2.07;1.97;;;24.90;99.90;;;;;;5026555;28;20460;-79
2022/09/13 11:14:18;;;;;;;1.93;1.83;;;25.10;99.90;;;;;;5028947;28;20564;-79
2022/09/13 11:16:57;;;;;;;2.10;2.00;;;25.10;99.90;;;;;;5028981;28;20494;-79
2022/09/13 11:19:52;;;;;;;2.40;2.10;;;25.20;99.90;;;;;;5023375;28;20509;-79
2022/09/13 11:22:48;;;;;;;1.80;1.80;;;25.20;99.90;;;;;;5024730;28;20476;-78
2022/09/13 11:25:37;;;;;;;2.00;1.90;;;25.30;99.90;;;;;;5023339;28;20522;-79
2022/09/13 11:28:17;;;;;;;2.27;2.17;;;25.20;99.90;;;;;;5023166;28;20459;-78
2022/09/13 11:31:00;;;;;;;2.10;1.90;;;25.10;99.90;;;;;;5022439;28;20913;-79
2022/09/13 11:33:41;;;;;;;2.00;1.90;;;25.00;99.90;;;;;;5025907;28;20476;-79
2022/09/13 11:36:28;;;;;;;1.90;1.90;;;25.10;99.90;;;;;;5015776;28;20494;-79
2022/09/13 11:39:07;;;;;;;2.00;1.90;;;25.00;99.90;;;;;;5023453;28;20448;-79
2022/09/13 11:41:46;;;;;;;2.00;1.90;;;25.00;99.90;;;;;;5027105;28;21137;-79
2022/09/13 11:44:31;;;;;;;2.40;1.70;;;25.00;99.90;;;;;;5028030;28;20466;-78
2022/09/13 11:47:07;;;;;;;2.13;1.80;;;25.00;99.90;;;;;;5029194;28;20463;-78
2022/09/13 11:49:49;;;;;;;1.90;1.80;;;25.10;99.90;;;;;;5026658;28;20451;-79
2022/09/13 11:52:27;;;;;;;2.00;1.90;;;25.00;99.90;;;;;;5028771;28;20472;-79
2022/09/13 11:55:05;;;;;;;3.50;2.53;;;24.90;99.90;;;;;;5028163;28;20445;-79
2022/09/13 11:57:39;;;;;;;1.50;1.50;;;24.90;99.90;;;;;;5026142;28;20476;-79
2022/09/13 12:00:19;;;;;;;2.03;1.50;;;25.00;99.90;;;;;;5029330;28;20522;-79
2022/09/13 12:02:56;;;;;;;2.00;1.90;;;24.90;99.90;;;;;;5021301;28;20486;-80
2022/09/13 12:05:28;;;;;;;2.30;2.20;;;24.80;99.90;;;;;;5031184;28;20930;-79
2022/09/13 12:08:01;;;;;;;1.90;1.80;;;24.80;99.90;;;;;;5023849;28;21098;-79
2022/09/13 12:10:34;;;;;;;2.10;2.00;;;24.80;99.90;;;;;;5029592;28;20452;-80
2022/09/13 12:13:04;;;;;;;1.70;1.60;;;24.90;99.90;;;;;;5028766;28;20487;-80
2022/09/13 12:15:37;;;;;;;2.00;1.90;;;24.80;99.90;;;;;;5025529;28;21008;-78
2022/09/13 12:18:13;;;;;;;2.23;2.10;;;24.70;99.90;;;;;;5025930;28;21371;-79
2022/09/13 12:20:46;;;;;;;2.73;2.53;;;24.70;99.90;;;;;;5020773;28;20507;-80
2022/09/13 12:23:19;;;;;;;3.73;3.40;;;24.70;99.90;;;;;;5025589;28;20876;-79
2022/09/13 12:25:52;;;;;;;4.10;2.50;;;24.80;99.90;;;;;;5021831;28;22578;-78
2022/09/13 12:28:26;;;;;;;2.00;1.90;;;24.80;99.90;;;;;;5019437;28;20449;-79
2022/09/13 12:30:59;;;;;;;1.70;1.70;;;24.70;99.90;;;;;;5025740;28;20487;-80
2022/09/13 12:33:27;;;;;;;2.03;1.90;;;24.80;99.90;;;;;;5026073;28;20473;-79
2022/09/13 12:36:28;;;;;;;2.27;2.07;;;24.80;99.90;;;;;;5033913;28;20906;-80
2022/09/13 12:39:22;;;;;;;1.80;1.40;;;24.90;99.90;;;;;;5014488;28;20565;-78
2022/09/13 12:42:06;;;;;;;1.70;1.60;;;25.00;99.90;;;;;;5027253;28;20599;-79
2022/09/13 12:44:52;;;;;;;1.80;1.80;;;25.30;99.90;;;;;;5031940;28;20464;-80
2022/09/13 12:48:02;;;;;;;2.20;2.10;;;25.40;99.90;;;;;;5032625;28;20463;-79
2022/09/13 12:50:44;;;;;;;2.03;1.93;;;25.20;99.90;;;;;;5003300;28;21032;-79
2022/09/13 12:53:27;;;;;;;2.10;1.90;;;25.20;99.90;;;;;;5032721;28;20472;-80
2022/09/13 12:56:02;;;;;;;2.40;1.93;;;25.30;99.90;;;;;;5031487;28;20491;-78
2022/09/13 12:58:55;;;;;;;2.30;2.00;;;25.60;99.90;;;;;;5032473;28;20475;-79
2022/09/13 13:01:25;;;;;;;2.00;1.83;;;25.50;99.90;;;;;;5042521;28;20444;-80
2022/09/13 13:03:56;;;;;;;1.80;1.70;;;25.30;99.90;;;;;;5033001;28;20459;-79
2022/09/13 13:06:32;;;;;;;1.90;1.80;;;25.30;99.90;;;;;;5033022;28;20488;-79
2022/09/13 13:09:04;;;;;;;2.20;2.13;;;25.20;99.90;;;;;;5031519;28;20959;-79
2022/09/13 13:11:44;;;;;;;2.00;1.90;;;25.20;99.90;;;;;;5030796;28;20455;-79
2022/09/13 13:14:29;;;;;;;1.70;1.60;;;25.30;99.90;;;;;;5029506;28;20451;-80
2022/09/13 13:17:31;;;;;;;2.03;1.80;;;25.20;99.90;;;;;;5025874;28;22200;-80
2022/09/13 13:19:59;;;;;;;2.00;1.90;;;25.20;99.90;;;;;;5026290;28;20460;-79
2022/09/13 13:22:51;;;;;;;2.07;1.97;;;25.20;99.90;;;;;;5024269;28;20546;-78
2022/09/13 13:25:36;;;;;;;2.40;2.30;;;25.10;99.90;;;;;;5030256;28;20460;-79
2022/09/13 13:28:19;;;;;;;2.10;2.00;;;25.00;99.90;;;;;;5033155;28;21013;-79